createdAt,value
2023-12-11T00:01:39.333Z,4.47
2023-12-11T00:04:41.103Z,5.82
2023-12-11T00:07:42.778Z,8.13
2023-12-11T00:10:44.776Z,3.95
2023-12-11T00:13:46.407Z,5.43
2023-12-11T00:16:48.303Z,3.10
2023-12-11T00:19:50.153Z,4.13
2023-12-11T00:22:51.789Z,4.18
2023-12-11T00:25:53.604Z,9.65
2023-12-11T00:28:55.228Z,5.70
2023-12-11T00:31:57.529Z,5.70
2023-12-11T00:34:59.357Z,4.95
2023-12-11T00:38:01.121Z,5.25
2023-12-11T00:41:02.856Z,5.15
2023-12-11T00:44:04.596Z,3.30
2023-12-11T00:47:06.376Z,2.65
2023-12-11T00:53:09.973Z,2.88
2023-12-11T00:56:11.584Z,4.38
2023-12-11T00:59:13.211Z,12.38
2023-12-11T01:02:14.905Z,2.70
2023-12-11T01:05:16.578Z,3.97
2023-12-11T01:08:18.186Z,3.25
2023-12-11T01:11:19.764Z,3.13
2023-12-11T01:14:21.422Z,5.03
2023-12-11T01:17:37.834Z,5.20
2023-12-11T01:20:42.223Z,7.38
2023-12-11T01:23:43.985Z,3.92
2023-12-11T01:26:45.623Z,8.15
2023-12-11T01:29:47.257Z,6.88
2023-12-11T01:32:48.904Z,4.95
2023-12-11T01:35:50.828Z,2.97
2023-12-11T01:41:54.004Z,1.67
2023-12-11T01:44:55.682Z,4.95
2023-12-11T01:47:58.010Z,6.30
2023-12-11T01:50:59.914Z,5.60
2023-12-11T01:57:04.025Z,4.60
2023-12-11T02:00:07.114Z,4.22
2023-12-11T02:03:10.671Z,4.75
2023-12-11T02:06:12.367Z,7.88
2023-12-11T02:09:14.117Z,6.82
2023-12-11T02:12:15.788Z,5.88
2023-12-11T02:15:42.350Z,8.32
2023-12-11T02:18:44.835Z,4.47
2023-12-11T02:21:46.752Z,7.63
2023-12-11T02:25:01.979Z,6.45
2023-12-11T02:28:05.303Z,6.22
2023-12-11T02:31:07.330Z,6.57
2023-12-11T02:34:10.170Z,6.38
2023-12-11T02:37:12.034Z,7.68
2023-12-11T02:40:13.843Z,5.20
2023-12-11T02:43:15.570Z,7.75
2023-12-11T02:46:17.303Z,8.48
2023-12-11T02:49:19.136Z,6.15
2023-12-11T02:55:22.482Z,5.72
2023-12-11T02:58:24.109Z,4.25
2023-12-11T03:01:26.088Z,4.70
2023-12-11T03:04:27.869Z,6.00
2023-12-11T03:10:32.640Z,11.32
2023-12-11T03:13:34.262Z,5.95
2023-12-11T03:16:36.111Z,6.57
2023-12-11T03:22:39.963Z,3.83
2023-12-11T03:25:42.754Z,3.22
2023-12-11T03:28:44.476Z,4.53
2023-12-11T03:31:46.086Z,5.15
2023-12-11T03:34:52.920Z,6.10
2023-12-11T03:37:54.546Z,5.75
2023-12-11T03:40:56.318Z,6.50
2023-12-11T03:46:59.492Z,7.60
2023-12-11T03:50:01.273Z,6.18
2023-12-11T03:56:13.048Z,7.22
2023-12-11T03:59:14.852Z,3.88
2023-12-11T04:05:20.040Z,8.07
2023-12-11T04:08:21.772Z,4.25
2023-12-11T04:11:23.419Z,3.10
2023-12-11T04:14:25.308Z,9.57
2023-12-11T04:17:27.022Z,4.70
2023-12-11T04:20:28.662Z,4.15
2023-12-11T04:23:30.403Z,4.18
2023-12-11T04:26:32.182Z,8.43
2023-12-11T04:29:33.796Z,4.22
2023-12-11T04:32:35.474Z,10.00
2023-12-11T04:35:37.291Z,10.52
2023-12-11T04:41:40.588Z,2.50
2023-12-11T04:47:43.792Z,4.20
2023-12-11T04:50:45.520Z,9.27
2023-12-11T04:53:47.184Z,3.90
2023-12-11T04:56:48.925Z,8.68
2023-12-11T04:59:50.843Z,6.63
2023-12-11T05:02:52.585Z,6.00
2023-12-11T05:08:55.813Z,4.35
2023-12-11T05:11:57.434Z,3.28
2023-12-11T05:15:01.162Z,3.63
2023-12-11T05:18:02.880Z,5.55
2023-12-11T05:24:13.050Z,5.45
2023-12-11T05:27:15.082Z,5.72
2023-12-11T05:30:16.936Z,4.80
2023-12-11T05:33:18.716Z,4.85
2023-12-11T05:36:20.506Z,5.70
2023-12-11T05:39:22.119Z,8.38
2023-12-11T05:42:23.785Z,5.45
2023-12-11T05:45:25.419Z,7.82
2023-12-11T05:48:27.231Z,7.95
2023-12-11T05:54:30.957Z,2.95
2023-12-11T05:57:32.989Z,4.20
2023-12-11T06:00:35.199Z,2.92
2023-12-11T06:03:36.950Z,3.60
2023-12-11T06:09:40.205Z,3.42
2023-12-11T06:12:42.082Z,3.33
2023-12-11T06:15:44.432Z,5.28
2023-12-11T06:18:46.275Z,2.35
2023-12-11T06:21:48.041Z,3.92
2023-12-11T06:27:52.978Z,2.03
2023-12-11T06:30:54.890Z,5.05
2023-12-11T06:33:57.808Z,2.30
2023-12-11T06:36:59.702Z,5.28
2023-12-11T06:40:01.917Z,3.85
2023-12-11T06:46:05.767Z,1.55
2023-12-11T06:52:09.889Z,8.82
2023-12-11T06:55:11.587Z,3.55
2023-12-11T06:58:13.321Z,4.70
2023-12-11T07:04:17.423Z,2.88
2023-12-11T07:07:19.253Z,6.32
2023-12-11T07:13:22.644Z,2.55
2023-12-11T07:16:27.307Z,4.05
2023-12-11T07:19:29.132Z,2.55
2023-12-11T07:22:34.445Z,4.03
2023-12-11T07:25:36.409Z,5.13
2023-12-11T07:28:38.914Z,5.78
2023-12-11T07:31:42.619Z,3.85
2023-12-11T07:34:44.367Z,2.15
2023-12-11T07:37:46.124Z,11.38
2023-12-11T07:43:59.226Z,4.95
2023-12-11T07:47:07.137Z,4.95
2023-12-11T07:50:08.992Z,5.13
2023-12-11T07:53:10.682Z,3.67
2023-12-11T07:59:20.851Z,9.27
2023-12-11T08:05:24.033Z,5.97
2023-12-11T08:08:25.684Z,14.93
2023-12-11T08:11:31.049Z,4.70
2023-12-11T08:14:35.026Z,8.60
2023-12-11T08:17:38.110Z,2.97
2023-12-11T08:23:49.125Z,5.75
2023-12-11T08:26:50.893Z,2.38
2023-12-11T08:32:54.195Z,2.95
2023-12-11T08:38:57.417Z,0.65
2023-12-11T08:45:00.932Z,5.47
2023-12-11T08:48:02.684Z,10.38
2023-12-11T08:51:04.790Z,11.88
2023-12-11T08:54:06.854Z,7.95
2023-12-11T08:57:08.686Z,9.27
2023-12-11T09:00:11.485Z,8.45
2023-12-11T09:03:13.260Z,5.47
2023-12-11T09:06:15.011Z,7.65
2023-12-11T09:09:16.742Z,4.85
2023-12-11T09:15:34.852Z,3.58
2023-12-11T09:18:37.710Z,6.25
2023-12-11T09:21:39.510Z,4.75
2023-12-11T09:24:41.158Z,7.72
2023-12-11T09:30:45.097Z,15.98
2023-12-11T09:33:46.974Z,8.90
2023-12-11T09:36:48.819Z,5.57
2023-12-11T09:39:50.764Z,7.05
2023-12-11T09:42:52.878Z,13.55
2023-12-11T09:45:56.116Z,9.40
2023-12-11T09:48:57.850Z,6.47
2023-12-11T09:52:00.523Z,5.15
2023-12-11T09:55:03.534Z,6.30
2023-12-11T09:58:05.788Z,10.77
2023-12-11T10:01:08.353Z,6.93
2023-12-11T10:04:10.225Z,8.27
2023-12-11T10:07:12.379Z,10.00
2023-12-11T10:10:34.583Z,6.40
2023-12-11T10:13:36.792Z,7.07
2023-12-11T10:16:38.562Z,7.68
2023-12-11T10:19:40.347Z,9.25
2023-12-11T10:22:42.129Z,7.25
2023-12-11T10:26:08.694Z,4.43
2023-12-11T10:29:21.281Z,7.65
2023-12-11T10:32:29.731Z,9.05
2023-12-11T10:35:32.602Z,4.00
2023-12-11T10:38:34.424Z,4.70
2023-12-11T10:44:46.748Z,6.60
2023-12-11T10:47:51.904Z,6.05
2023-12-11T10:50:53.672Z,8.68
2023-12-11T10:53:56.483Z,8.48
2023-12-11T10:57:01.428Z,8.82
2023-12-11T11:00:04.376Z,8.82
2023-12-11T11:03:10.375Z,7.03
2023-12-11T11:06:12.546Z,9.88
2023-12-11T11:09:23.994Z,11.27
2023-12-11T11:12:42.583Z,9.40
2023-12-11T11:15:51.307Z,5.32
2023-12-11T11:19:07.057Z,6.82
2023-12-11T11:22:12.040Z,9.43
2023-12-11T11:25:35.490Z,8.10
2023-12-11T11:28:40.424Z,14.88
2023-12-11T11:31:53.924Z,8.02
2023-12-11T11:34:55.771Z,10.48
2023-12-11T11:37:57.605Z,11.85
2023-12-11T11:41:00.159Z,11.77
2023-12-11T11:44:07.770Z,10.35
2023-12-11T11:47:09.435Z,8.98
2023-12-11T11:50:14.236Z,12.13
2023-12-11T11:53:18.334Z,7.68
2023-12-11T11:56:20.054Z,8.18
2023-12-11T11:59:21.764Z,12.43
2023-12-11T12:02:24.582Z,9.77
2023-12-11T12:05:27.636Z,11.05
2023-12-11T12:08:29.810Z,9.63
2023-12-11T12:11:35.265Z,11.52
2023-12-11T12:14:37.019Z,10.98
2023-12-11T12:17:40.275Z,13.80
2023-12-11T12:20:42.391Z,11.43
2023-12-11T12:23:44.065Z,10.02
2023-12-11T12:26:47.412Z,9.90
2023-12-11T12:29:49.457Z,8.00
2023-12-11T12:32:52.502Z,11.93
2023-12-11T12:35:54.693Z,9.63
2023-12-11T12:38:56.693Z,11.95
2023-12-11T12:41:58.366Z,9.40
2023-12-11T12:45:01.006Z,10.05
2023-12-11T12:48:02.761Z,9.00
2023-12-11T12:51:06.288Z,8.88
2023-12-11T12:54:07.902Z,11.57
2023-12-11T12:57:09.770Z,11.52
2023-12-11T13:00:21.659Z,10.85
2023-12-11T13:03:24.716Z,11.48
2023-12-11T13:06:31.639Z,7.03
2023-12-11T13:09:33.714Z,8.80
2023-12-11T13:12:35.390Z,8.88
2023-12-11T13:18:38.539Z,12.43
2023-12-11T13:21:40.215Z,15.40
2023-12-11T13:24:41.869Z,9.88
2023-12-11T13:27:47.834Z,5.72
2023-12-11T13:30:49.735Z,6.65
2023-12-11T13:33:53.038Z,15.02
2023-12-11T13:36:55.125Z,13.52
2023-12-11T13:39:57.901Z,16.02
2023-12-11T13:42:59.634Z,9.93
2023-12-11T13:46:01.459Z,8.30
2023-12-11T13:49:04.039Z,9.32
2023-12-11T13:52:06.104Z,7.95
2023-12-11T13:55:08.350Z,24.20
2023-12-11T13:58:10.051Z,18.42
2023-12-11T14:04:14.742Z,7.53
2023-12-11T14:07:16.451Z,11.70
2023-12-11T14:13:19.888Z,18.08
2023-12-11T14:16:22.308Z,14.60
2023-12-11T14:19:24.075Z,11.45
2023-12-11T14:22:25.791Z,6.28
2023-12-11T14:25:27.589Z,10.45
2023-12-11T14:28:29.337Z,5.95
2023-12-11T14:34:32.685Z,7.90
2023-12-11T14:37:34.945Z,8.18
2023-12-11T14:40:37.006Z,5.05
2023-12-11T14:43:38.721Z,5.75
2023-12-11T14:49:42.033Z,6.50
2023-12-11T14:52:43.783Z,4.93
2023-12-11T14:55:45.566Z,8.07
2023-12-11T14:58:49.672Z,7.15
2023-12-11T15:01:51.529Z,7.10
2023-12-11T15:04:53.311Z,8.55
2023-12-11T15:10:56.607Z,5.50
2023-12-11T15:13:58.234Z,8.38
2023-12-11T15:17:00.623Z,8.02
2023-12-11T15:20:10.605Z,8.20
2023-12-11T15:23:13.050Z,6.95
2023-12-11T15:26:21.034Z,3.58
2023-12-11T15:29:22.776Z,6.15
2023-12-11T15:35:26.175Z,5.13
2023-12-11T15:38:29.855Z,11.32
2023-12-11T15:41:31.650Z,6.72
2023-12-11T15:47:59.634Z,8.27
2023-12-11T15:50:56.634Z,4.97
2023-12-11T15:54:04.322Z,5.63
2023-12-11T16:00:12.168Z,7.30
2023-12-11T16:03:13.966Z,7.80
2023-12-11T16:06:15.747Z,17.77
2023-12-11T16:12:20.796Z,11.15
2023-12-11T16:18:24.442Z,13.38
2023-12-11T16:24:27.648Z,13.85
2023-12-11T16:30:31.190Z,7.15
2023-12-11T16:36:34.592Z,7.30
2023-12-11T16:39:36.365Z,12.77
2023-12-11T16:42:38.036Z,16.05
2023-12-11T16:45:44.150Z,17.60
2023-12-11T16:48:46.071Z,14.98
2023-12-11T16:51:47.786Z,15.02
2023-12-11T16:57:51.587Z,10.98
2023-12-11T17:00:53.451Z,13.68
2023-12-11T17:03:55.215Z,12.45
2023-12-11T17:06:56.940Z,9.23
2023-12-11T17:13:02.115Z,13.77
2023-12-11T17:16:04.564Z,8.23
2023-12-11T17:19:06.424Z,14.50
2023-12-11T17:22:08.176Z,10.60
2023-12-11T17:25:09.944Z,11.25
2023-12-11T17:28:11.741Z,11.98
2023-12-11T17:31:15.370Z,11.38
2023-12-11T17:34:17.084Z,17.98
2023-12-11T17:37:22.407Z,10.48
2023-12-11T17:40:25.777Z,9.80
2023-12-11T17:43:27.440Z,8.93
2023-12-11T17:46:29.051Z,10.57
2023-12-11T17:49:30.874Z,10.20
2023-12-11T17:52:32.762Z,8.75
2023-12-11T17:55:34.566Z,7.50
2023-12-11T18:01:40.381Z,5.35
2023-12-11T18:04:42.179Z,9.38
2023-12-11T18:07:44.116Z,11.25
2023-12-11T18:10:46.391Z,9.30
2023-12-11T18:13:48.074Z,10.18
2023-12-11T18:19:51.353Z,11.38
2023-12-11T18:22:53.009Z,10.32
2023-12-11T18:25:54.709Z,9.57
2023-12-11T18:28:56.408Z,12.90
2023-12-11T18:35:01.634Z,13.57
2023-12-11T18:38:03.475Z,12.02
2023-12-11T18:44:07.533Z,11.88
2023-12-11T18:47:09.257Z,11.05
2023-12-11T18:53:13.588Z,7.70
2023-12-11T18:56:23.397Z,19.08
2023-12-11T18:59:25.025Z,26.52
2023-12-11T19:05:28.392Z,21.42
2023-12-11T19:08:30.119Z,21.17
2023-12-11T19:14:33.463Z,20.13
2023-12-11T19:17:35.319Z,21.48
2023-12-11T19:20:37.436Z,18.08
2023-12-11T19:23:39.118Z,15.90
2023-12-11T19:29:42.197Z,15.43
2023-12-11T19:35:45.353Z,7.07
2023-12-11T19:41:48.498Z,26.02
2023-12-11T19:44:50.083Z,18.40
2023-12-11T19:47:51.955Z,11.18
2023-12-11T19:50:53.620Z,7.72
2023-12-11T19:56:56.759Z,17.92
2023-12-11T19:59:58.418Z,10.25
2023-12-11T20:06:01.946Z,12.95
2023-12-11T20:09:03.651Z,18.40
2023-12-11T20:15:16.078Z,17.08
2023-12-11T20:21:19.876Z,9.45
2023-12-11T20:24:21.505Z,13.40
2023-12-11T20:27:23.090Z,13.57
2023-12-11T20:30:24.748Z,10.52
2023-12-11T20:36:29.661Z,13.85
2023-12-11T20:39:31.942Z,9.60
2023-12-11T20:45:35.646Z,9.63
2023-12-11T20:48:37.319Z,13.38
2023-12-11T20:51:42.972Z,7.28
2023-12-11T20:54:44.740Z,13.25
2023-12-11T20:57:46.454Z,10.48
2023-12-11T21:00:48.168Z,11.45
2023-12-11T21:06:51.533Z,9.93
2023-12-11T21:12:54.711Z,9.35
2023-12-11T21:15:59.511Z,15.88
2023-12-11T21:19:04.431Z,14.80
2023-12-11T21:22:06.346Z,20.58
2023-12-11T21:28:09.587Z,16.13
2023-12-11T21:31:28.376Z,23.48
2023-12-11T21:34:30.140Z,23.13
2023-12-11T21:37:32.042Z,11.98
2023-12-11T21:40:33.948Z,24.10
2023-12-11T21:46:37.520Z,16.70
2023-12-11T21:49:39.225Z,11.68
2023-12-11T21:55:42.468Z,18.92
2023-12-11T22:01:45.878Z,18.13
2023-12-11T22:04:47.682Z,11.45
2023-12-11T22:10:50.786Z,14.63
2023-12-11T22:13:52.418Z,16.77
2023-12-11T22:16:54.014Z,16.48
2023-12-11T22:19:58.250Z,11.98
2023-12-11T22:22:59.910Z,17.45
2023-12-11T22:26:01.522Z,17.88
2023-12-11T22:32:06.601Z,16.75
2023-12-11T22:35:08.606Z,17.27
2023-12-11T22:38:11.022Z,13.77
2023-12-11T22:41:27.030Z,17.90
2023-12-11T22:44:28.642Z,14.13
2023-12-11T22:47:30.470Z,24.20
2023-12-11T22:50:32.328Z,21.88
2023-12-11T22:56:35.354Z,12.80
2023-12-11T22:59:37.329Z,10.77
2023-12-11T23:02:38.976Z,14.63
2023-12-11T23:05:46.739Z,13.85
2023-12-11T23:08:48.612Z,15.80
2023-12-11T23:11:50.180Z,14.05
2023-12-11T23:14:51.747Z,15.75
2023-12-11T23:17:53.450Z,20.20
2023-12-11T23:23:57.854Z,18.90
2023-12-11T23:26:59.443Z,22.10
2023-12-11T23:30:07.139Z,29.35
2023-12-11T23:33:09.941Z,24.50
2023-12-11T23:36:12.832Z,24.50
2023-12-11T23:39:14.408Z,26.05
2023-12-11T23:42:15.979Z,13.13
2023-12-11T23:45:17.717Z,20.58
2023-12-11T23:51:21.361Z,29.83
2023-12-11T23:54:23.071Z,19.52
